York, Maine
Current Conditions -  °F | °C
As of 1:13 PM on Wednesday 26 Nov 2014 (Local Time) from KPSM Reporting Station
Light Snow Light Snow  
Wind Chill: 26°   Ceiling: 200
Heat Index: 32°   Visibility: 0.62mi
Dew Point: 32°   Wind: 7mph
Humidity: 100%   Direction: 360°N
Pressure: 30.12"   Gusts: NA
Location:  43.15°N, 70.65°W
Report Text: KPSM 261813Z 36006KT 5/8SM R34/P6000FT -SN BR OVC002 00/00 A3012 RMK AO2A PRESRR
Loading
Personal Weather Stations






























Interactive Weather Map New forecast layout! Learn more

10-Day Weather Forecast

Advertisements
Track Severe Weather on mobile